createdAt,value
2023-04-19T00:01:28.441Z,13.37
2023-04-19T00:03:56.786Z,13.37
2023-04-19T00:06:24.693Z,13.32
2023-04-19T00:08:51.353Z,13.28
2023-04-19T00:11:18.465Z,13.28
2023-04-19T00:13:45.054Z,13.26
2023-04-19T00:16:11.690Z,13.30
2023-04-19T00:18:38.853Z,13.21
2023-04-19T00:21:05.829Z,13.21
2023-04-19T00:23:32.543Z,13.18
2023-04-19T00:25:59.091Z,13.18
2023-04-19T00:28:26.239Z,13.18
2023-04-19T00:30:52.887Z,13.12
2023-04-19T00:33:19.969Z,13.10
2023-04-19T00:35:46.565Z,13.05
2023-04-19T00:38:13.065Z,13.05
2023-04-19T00:40:39.594Z,13.08
2023-04-19T00:43:06.174Z,13.06
2023-04-19T00:45:34.916Z,13.06
2023-04-19T00:48:01.940Z,12.98
2023-04-19T00:50:29.014Z,12.98
2023-04-19T00:52:57.761Z,12.93
2023-04-19T00:55:24.676Z,12.87
2023-04-19T00:57:52.294Z,12.86
2023-04-19T01:00:20.487Z,12.83
2023-04-19T01:02:47.935Z,12.84
2023-04-19T01:05:15.161Z,12.84
2023-04-19T01:07:42.944Z,12.76
2023-04-19T01:10:09.934Z,12.71
2023-04-19T01:12:36.598Z,12.66
2023-04-19T01:15:03.344Z,12.66
2023-04-19T01:17:32.357Z,12.58
2023-04-19T01:20:03.920Z,12.64
2023-04-19T01:22:30.630Z,12.53
2023-04-19T01:24:57.298Z,12.49
2023-04-19T01:27:24.090Z,12.48
2023-04-19T01:29:50.851Z,12.45
2023-04-19T01:32:17.661Z,12.41
2023-04-19T01:34:44.265Z,12.30
2023-04-19T01:37:10.873Z,12.40
2023-04-19T01:39:37.439Z,12.20
2023-04-19T01:42:04.450Z,12.26
2023-04-19T01:44:31.615Z,12.22
2023-04-19T01:46:58.257Z,12.27
2023-04-19T01:49:25.012Z,12.27
2023-04-19T01:51:51.536Z,12.35
2023-04-19T01:54:18.247Z,12.25
2023-04-19T01:56:44.976Z,12.18
2023-04-19T01:59:11.509Z,12.22
2023-04-19T02:01:38.026Z,12.16
2023-04-19T02:04:04.868Z,12.15
2023-04-19T02:06:31.955Z,12.08
2023-04-19T02:08:58.951Z,12.07
2023-04-19T02:11:25.577Z,12.01
2023-04-19T02:13:52.163Z,11.88
2023-04-19T02:16:18.750Z,11.79
2023-04-19T02:18:46.845Z,11.69
2023-04-19T02:21:13.584Z,11.72
2023-04-19T02:23:40.205Z,11.71
2023-04-19T02:26:06.730Z,11.71
2023-04-19T02:28:33.494Z,11.65
2023-04-19T02:31:05.162Z,11.70
2023-04-19T02:33:32.108Z,11.66
2023-04-19T02:35:58.599Z,11.65
2023-04-19T02:38:25.600Z,11.70
2023-04-19T02:40:52.120Z,11.64
2023-04-19T02:43:18.706Z,11.60
2023-04-19T02:45:45.247Z,11.60
2023-04-19T02:48:11.800Z,11.57
2023-04-19T02:50:41.359Z,11.56
2023-04-19T02:53:07.897Z,11.51
2023-04-19T02:55:34.464Z,11.51
2023-04-19T02:58:01.015Z,11.46
2023-04-19T03:00:28.145Z,11.48
2023-04-19T03:02:56.784Z,11.49
2023-04-19T03:05:23.886Z,11.56
2023-04-19T03:07:50.632Z,11.62
2023-04-19T03:10:17.311Z,11.54
2023-04-19T03:12:43.936Z,11.47
2023-04-19T03:15:11.127Z,11.48
2023-04-19T03:17:37.864Z,11.48
2023-04-19T03:20:09.743Z,11.42
2023-04-19T03:22:36.360Z,11.45
2023-04-19T03:25:03.210Z,11.38
2023-04-19T03:27:29.740Z,11.30
2023-04-19T03:29:57.412Z,11.26
2023-04-19T03:32:23.986Z,11.33
2023-04-19T03:34:50.583Z,11.35
2023-04-19T03:37:17.127Z,11.40
2023-04-19T03:39:43.622Z,11.32
2023-04-19T03:42:10.688Z,11.31
2023-04-19T03:44:37.422Z,11.33
2023-04-19T03:47:04.014Z,11.30
2023-04-19T03:49:30.737Z,11.24
2023-04-19T03:51:57.255Z,11.28
2023-04-19T03:54:23.774Z,11.32
2023-04-19T03:56:50.352Z,11.13
2023-04-19T03:59:16.886Z,11.00
2023-04-19T04:01:43.533Z,10.94
2023-04-19T04:04:10.400Z,10.86
2023-04-19T04:06:37.167Z,10.67
2023-04-19T04:09:04.084Z,10.68
2023-04-19T04:11:31.428Z,10.77
2023-04-19T04:13:57.976Z,10.80
2023-04-19T04:16:24.593Z,10.87
2023-04-19T04:18:51.155Z,10.88
2023-04-19T04:21:17.657Z,10.97
2023-04-19T04:23:44.196Z,11.10
2023-04-19T04:26:11.119Z,11.05
2023-04-19T04:28:38.139Z,11.08
2023-04-19T04:31:04.743Z,11.01
2023-04-19T04:33:32.283Z,11.03
2023-04-19T04:35:59.180Z,11.01
2023-04-19T04:38:25.773Z,10.83
2023-04-19T04:40:53.935Z,10.87
2023-04-19T04:43:25.967Z,10.86
2023-04-19T04:45:55.730Z,10.92
2023-04-19T04:48:22.455Z,10.88
2023-04-19T04:50:49.105Z,10.91
2023-04-19T04:53:15.798Z,10.78
2023-04-19T04:55:42.331Z,10.81
2023-04-19T04:58:08.853Z,10.70
2023-04-19T05:00:36.063Z,10.75
2023-04-19T05:03:03.532Z,10.67
2023-04-19T05:05:30.424Z,10.61
2023-04-19T05:07:57.040Z,10.71
2023-04-19T05:10:23.699Z,10.64
2023-04-19T05:12:50.282Z,10.54
2023-04-19T05:15:17.080Z,10.65
2023-04-19T05:17:43.816Z,10.57
2023-04-19T05:20:11.106Z,10.50
2023-04-19T05:22:38.185Z,10.51
2023-04-19T05:25:06.078Z,10.63
2023-04-19T05:27:32.626Z,10.66
2023-04-19T05:29:59.197Z,10.64
2023-04-19T05:32:26.334Z,10.71
2023-04-19T05:34:52.869Z,10.68
2023-04-19T05:37:19.450Z,10.67
2023-04-19T05:39:46.180Z,10.62
2023-04-19T05:42:12.762Z,10.55
2023-04-19T05:44:39.290Z,10.54
2023-04-19T05:47:05.868Z,10.51
2023-04-19T05:49:32.403Z,10.68
2023-04-19T05:51:58.939Z,10.76
2023-04-19T05:54:25.595Z,10.94
2023-04-19T05:56:52.126Z,11.07
2023-04-19T05:59:18.655Z,11.20
2023-04-19T06:01:45.613Z,11.18
2023-04-19T06:04:12.291Z,11.14
2023-04-19T06:06:39.266Z,11.19
2023-04-19T06:09:07.131Z,11.18
2023-04-19T06:11:42.701Z,11.34
2023-04-19T06:14:16.966Z,11.39
2023-04-19T06:16:43.763Z,11.37
2023-04-19T06:19:10.313Z,11.46
2023-04-19T06:21:36.939Z,11.43
2023-04-19T06:24:03.928Z,11.38
2023-04-19T06:26:30.603Z,11.42
2023-04-19T06:28:57.227Z,11.40
2023-04-19T06:31:23.964Z,11.48
2023-04-19T06:33:50.850Z,11.60
2023-04-19T06:36:17.628Z,11.64
2023-04-19T06:38:46.864Z,11.60
2023-04-19T06:41:13.525Z,11.62
2023-04-19T06:43:41.976Z,11.65
2023-04-19T06:46:10.440Z,11.64
2023-04-19T06:48:37.116Z,11.74
2023-04-19T06:51:03.982Z,11.76
2023-04-19T06:53:30.680Z,11.83
2023-04-19T06:56:01.320Z,11.89
2023-04-19T06:58:29.060Z,11.94
2023-04-19T07:00:56.221Z,11.98
2023-04-19T07:03:23.084Z,12.03
2023-04-19T07:05:52.174Z,12.08
2023-04-19T07:08:18.778Z,12.10
2023-04-19T07:10:45.346Z,12.18
2023-04-19T07:13:12.130Z,12.23
2023-04-19T07:15:38.692Z,12.28
2023-04-19T07:18:05.522Z,12.34
2023-04-19T07:20:32.341Z,12.39
2023-04-19T07:22:59.644Z,12.50
2023-04-19T07:25:26.661Z,12.53
2023-04-19T07:27:54.653Z,12.58
2023-04-19T07:30:21.538Z,12.64
2023-04-19T07:32:48.318Z,12.66
2023-04-19T07:35:15.076Z,12.74
2023-04-19T07:37:43.106Z,12.81
2023-04-19T07:40:10.240Z,12.86
2023-04-19T07:42:36.849Z,12.91
2023-04-19T07:45:03.679Z,13.02
2023-04-19T07:47:31.407Z,13.11
2023-04-19T07:49:58.005Z,13.18
2023-04-19T07:52:24.557Z,13.31
2023-04-19T07:54:51.129Z,13.34
2023-04-19T07:57:17.692Z,13.39
2023-04-19T07:59:44.390Z,13.43
2023-04-19T08:02:11.102Z,13.56
2023-04-19T08:04:38.033Z,13.64
2023-04-19T08:07:04.951Z,13.70
2023-04-19T08:09:34.027Z,13.74
2023-04-19T08:12:01.526Z,13.86
2023-04-19T08:14:37.677Z,13.89
2023-04-19T08:17:23.354Z,13.94
2023-04-19T08:19:52.885Z,14.02
2023-04-19T08:22:20.471Z,14.13
2023-04-19T08:24:50.029Z,14.20
2023-04-19T08:27:16.612Z,14.23
2023-04-19T08:29:43.628Z,14.30
2023-04-19T08:32:11.706Z,14.40
2023-04-19T08:34:39.433Z,14.53
2023-04-19T08:37:07.359Z,14.62
2023-04-19T08:39:34.653Z,14.64
2023-04-19T08:42:10.949Z,14.67
2023-04-19T08:45:02.327Z,14.76
2023-04-19T08:47:34.484Z,14.95
2023-04-19T08:52:47.749Z,15.08
2023-04-19T08:55:19.164Z,15.21
2023-04-19T08:57:45.693Z,15.30
2023-04-19T09:00:12.659Z,15.39
2023-04-19T09:02:47.484Z,15.55
2023-04-19T09:05:16.204Z,15.54
2023-04-19T09:07:42.871Z,15.64
2023-04-19T09:10:12.345Z,15.63
2023-04-19T09:12:40.701Z,15.60
2023-04-19T09:15:09.228Z,15.64
2023-04-19T09:17:36.925Z,15.66
2023-04-19T09:20:05.282Z,15.76
2023-04-19T09:22:32.377Z,15.75
2023-04-19T09:27:34.861Z,15.93
2023-04-19T09:30:03.500Z,15.88
2023-04-19T09:32:46.305Z,15.95
2023-04-19T09:35:13.006Z,16.06
2023-04-19T09:38:04.126Z,16.12
2023-04-19T09:40:28.461Z,16.23
2023-04-19T09:43:08.741Z,16.27
2023-04-19T09:45:43.557Z,16.38
2023-04-19T09:48:11.297Z,16.44
2023-04-19T09:50:57.725Z,16.50
2023-04-19T09:53:30.604Z,16.59
2023-04-19T09:56:01.900Z,16.63
2023-04-19T09:58:38.281Z,16.75
2023-04-19T10:01:15.793Z,16.78
2023-04-19T10:03:45.891Z,16.85
2023-04-19T10:06:40.033Z,16.90
2023-04-19T10:09:04.506Z,17.03
2023-04-19T10:11:43.040Z,17.02
2023-04-19T10:14:11.917Z,17.08
2023-04-19T10:16:39.203Z,17.21
2023-04-19T10:19:11.217Z,17.23
2023-04-19T10:21:38.555Z,17.25
2023-04-19T10:24:05.947Z,17.33
2023-04-19T10:27:12.222Z,17.39
2023-04-19T10:29:57.186Z,17.51
2023-04-19T10:32:27.174Z,17.48
2023-04-19T10:34:56.618Z,17.65
2023-04-19T10:37:26.032Z,17.69
2023-04-19T10:39:53.038Z,17.77
2023-04-19T10:42:19.585Z,17.79
2023-04-19T10:45:27.624Z,17.90
2023-04-19T10:47:54.229Z,17.88
2023-04-19T10:50:24.007Z,17.92
2023-04-19T10:52:50.783Z,18.03
2023-04-19T10:55:19.596Z,18.05
2023-04-19T10:58:03.977Z,18.09
2023-04-19T11:00:32.549Z,18.05
2023-04-19T11:03:36.842Z,18.16
2023-04-19T11:06:18.969Z,18.32
2023-04-19T11:08:45.563Z,18.25
2023-04-19T11:11:13.892Z,18.27
2023-04-19T11:13:42.858Z,18.42
2023-04-19T11:16:10.085Z,18.46
2023-04-19T11:18:36.633Z,18.50
2023-04-19T11:21:03.711Z,18.57
2023-04-19T11:23:30.366Z,18.61
2023-04-19T11:25:57.210Z,18.56
2023-04-19T11:28:24.679Z,18.66
2023-04-19T11:30:52.398Z,18.80
2023-04-19T11:33:25.181Z,18.81
2023-04-19T11:35:51.721Z,18.91
2023-04-19T11:38:18.257Z,18.93
2023-04-19T11:40:44.840Z,18.87
2023-04-19T11:43:11.448Z,18.95
2023-04-19T11:45:39.965Z,18.97
2023-04-19T11:48:08.146Z,18.99
2023-04-19T11:50:37.857Z,19.03
2023-04-19T11:53:22.062Z,19.02
2023-04-19T11:55:57.885Z,19.17
2023-04-19T11:58:32.054Z,19.14
2023-04-19T12:01:06.651Z,19.10
2023-04-19T12:03:35.511Z,19.10
2023-04-19T12:06:04.115Z,19.19
2023-04-19T12:08:36.340Z,19.28
2023-04-19T12:11:04.351Z,19.35
2023-04-19T12:13:31.977Z,19.38
2023-04-19T12:15:59.220Z,19.48
2023-04-19T12:18:27.445Z,19.34
2023-04-19T12:20:54.950Z,19.39
2023-04-19T12:23:21.859Z,19.32
2023-04-19T12:25:49.121Z,19.39
2023-04-19T12:28:17.171Z,19.64
2023-04-19T12:30:44.210Z,19.76
2023-04-19T12:33:10.948Z,19.75
2023-04-19T12:35:38.568Z,19.62
2023-04-19T12:38:05.372Z,19.71
2023-04-19T12:40:32.204Z,19.73
2023-04-19T12:42:58.864Z,19.70
2023-04-19T12:45:25.444Z,19.75
2023-04-19T12:47:52.106Z,19.77
2023-04-19T12:50:18.723Z,19.82
2023-04-19T12:52:46.088Z,19.80
2023-04-19T12:55:12.824Z,19.92
2023-04-19T12:57:39.576Z,20.06
2023-04-19T13:00:07.437Z,20.05
2023-04-19T13:02:35.184Z,19.91
2023-04-19T13:05:02.492Z,19.92
2023-04-19T13:07:29.872Z,20.02
2023-04-19T13:09:57.075Z,20.14
2023-04-19T13:12:24.196Z,19.98
2023-04-19T13:14:52.357Z,19.94
2023-04-19T13:17:20.285Z,19.90
2023-04-19T13:19:47.622Z,20.17
2023-04-19T13:22:14.676Z,20.18
2023-04-19T13:24:41.424Z,20.03
2023-04-19T13:27:09.117Z,20.24
2023-04-19T13:29:36.215Z,20.30
2023-04-19T13:32:03.142Z,20.26
2023-04-19T13:34:29.739Z,20.25
2023-04-19T13:36:57.698Z,20.30
2023-04-19T13:39:24.407Z,20.17
2023-04-19T13:41:51.255Z,20.20
2023-04-19T13:44:18.233Z,20.31
2023-04-19T13:46:45.168Z,20.24
2023-04-19T13:49:11.821Z,20.28
2023-04-19T13:51:49.072Z,20.06
2023-04-19T13:54:21.258Z,19.99
2023-04-19T13:56:50.539Z,20.26
2023-04-19T13:59:18.789Z,20.47
2023-04-19T14:01:45.306Z,20.40
2023-04-19T14:04:12.013Z,20.40
2023-04-19T14:06:38.742Z,20.35
2023-04-19T14:09:05.280Z,20.25
2023-04-19T14:11:32.341Z,20.38
2023-04-19T14:13:58.895Z,20.59
2023-04-19T14:16:25.669Z,20.58
2023-04-19T14:18:52.705Z,20.73
2023-04-19T14:21:19.388Z,20.79
2023-04-19T14:23:45.969Z,20.92
2023-04-19T14:26:12.612Z,21.02
2023-04-19T14:28:39.106Z,20.92
2023-04-19T14:31:06.399Z,21.01
2023-04-19T14:33:33.275Z,21.10
2023-04-19T14:35:59.943Z,21.17
2023-04-19T14:38:26.528Z,21.03
2023-04-19T14:40:53.100Z,20.96
2023-04-19T14:43:19.620Z,21.06
2023-04-19T14:45:48.722Z,21.11
2023-04-19T14:48:15.368Z,21.06
2023-04-19T14:50:41.902Z,20.85
2023-04-19T14:53:08.836Z,20.72
2023-04-19T14:55:37.692Z,20.72
2023-04-19T14:58:04.702Z,20.99
2023-04-19T15:00:31.574Z,21.08
2023-04-19T15:02:58.203Z,20.99
2023-04-19T15:05:27.657Z,20.95
2023-04-19T15:07:54.348Z,20.99
2023-04-19T15:10:21.096Z,21.02
2023-04-19T15:12:47.691Z,21.12
2023-04-19T15:15:14.237Z,21.18
2023-04-19T15:17:41.246Z,21.28
2023-04-19T15:20:09.223Z,21.42
2023-04-19T15:22:35.809Z,21.23
2023-04-19T15:25:02.489Z,21.27
2023-04-19T15:27:29.550Z,21.21
2023-04-19T15:29:56.055Z,21.13
2023-04-19T15:32:22.670Z,21.15
2023-04-19T15:34:49.214Z,20.92
2023-04-19T15:37:15.940Z,21.01
2023-04-19T15:39:43.623Z,21.14
2023-04-19T15:42:10.290Z,21.10
2023-04-19T15:44:36.835Z,21.20
2023-04-19T15:47:03.648Z,21.39
2023-04-19T15:49:30.536Z,21.36
2023-04-19T15:51:57.113Z,21.44
2023-04-19T15:54:23.650Z,21.53
2023-04-19T15:56:50.341Z,21.63
2023-04-19T15:59:16.991Z,21.86
2023-04-19T16:01:43.890Z,21.83
2023-04-19T16:04:11.668Z,21.85
2023-04-19T16:06:38.234Z,21.68
2023-04-19T16:09:04.894Z,21.68
2023-04-19T16:11:31.477Z,21.64
2023-04-19T16:13:57.977Z,21.72
2023-04-19T16:16:26.721Z,22.30
2023-04-19T16:18:53.359Z,22.45
2023-04-19T16:21:19.916Z,22.64
2023-04-19T16:23:46.487Z,22.74
2023-04-19T16:26:13.074Z,22.95
2023-04-19T16:28:39.586Z,22.83
2023-04-19T16:31:06.160Z,23.11
2023-04-19T16:33:32.734Z,23.12
2023-04-19T16:35:59.290Z,22.94
2023-04-19T16:38:25.842Z,23.02
2023-04-19T16:40:53.389Z,23.41
2023-04-19T16:43:20.898Z,23.77
2023-04-19T16:45:48.332Z,24.21
2023-04-19T16:48:15.053Z,24.34
2023-04-19T16:50:42.244Z,24.61
2023-04-19T16:53:08.843Z,24.71
2023-04-19T16:55:36.768Z,24.99
2023-04-19T16:58:03.350Z,24.54
2023-04-19T17:00:29.929Z,24.47
2023-04-19T17:02:56.613Z,24.61
2023-04-19T17:05:23.437Z,24.64
2023-04-19T17:07:51.053Z,24.61
2023-04-19T17:10:17.613Z,24.87
2023-04-19T17:12:44.968Z,24.74
2023-04-19T17:15:11.720Z,24.76
2023-04-19T17:17:38.314Z,24.77
2023-04-19T17:20:06.263Z,24.75
2023-04-19T17:22:32.928Z,24.64
2023-04-19T17:25:00.428Z,24.50
2023-04-19T17:27:27.028Z,24.55
2023-04-19T17:29:53.657Z,24.29
2023-04-19T17:32:20.279Z,24.13
2023-04-19T17:34:46.882Z,24.19
2023-04-19T17:37:13.403Z,24.32
2023-04-19T17:39:40.337Z,24.20
2023-04-19T17:42:06.921Z,23.92
2023-04-19T17:44:33.553Z,23.81
2023-04-19T17:47:00.297Z,23.91
2023-04-19T17:49:27.148Z,23.72
2023-04-19T17:51:55.673Z,23.47
2023-04-19T17:54:22.235Z,23.46
2023-04-19T17:56:49.064Z,23.43
2023-04-19T17:59:16.762Z,23.14
2023-04-19T18:01:43.616Z,23.19
2023-04-19T18:04:14.111Z,23.03
2023-04-19T18:06:41.162Z,22.95
2023-04-19T18:09:07.767Z,22.63
2023-04-19T18:11:34.438Z,22.51
2023-04-19T18:14:01.051Z,22.40
2023-04-19T18:16:27.660Z,22.04
2023-04-19T18:18:54.293Z,21.79
2023-04-19T18:21:20.827Z,21.57
2023-04-19T18:23:48.084Z,21.37
2023-04-19T18:26:14.636Z,21.14
2023-04-19T18:28:41.165Z,20.95
2023-04-19T18:31:08.612Z,20.72
2023-04-19T18:33:35.508Z,20.59
2023-04-19T18:36:02.026Z,20.51
2023-04-19T18:38:28.591Z,20.33
2023-04-19T18:40:55.185Z,20.25
2023-04-19T18:43:21.930Z,20.10
2023-04-19T18:45:55.815Z,20.01
2023-04-19T18:48:27.481Z,19.96
2023-04-19T18:50:54.968Z,19.84
2023-04-19T18:53:21.517Z,19.71
2023-04-19T18:55:48.566Z,19.64
2023-04-19T18:58:15.138Z,19.55
2023-04-19T19:00:41.859Z,19.44
2023-04-19T19:03:19.165Z,19.35
2023-04-19T19:05:55.597Z,19.28
2023-04-19T19:08:22.504Z,19.23
2023-04-19T19:11:14.223Z,19.12
2023-04-19T19:13:36.633Z,19.14
2023-04-19T19:16:05.327Z,19.03
2023-04-19T19:18:32.202Z,18.94
2023-04-19T19:21:00.215Z,18.89
2023-04-19T19:25:58.092Z,18.73
2023-04-19T19:28:24.781Z,18.68
2023-04-19T19:30:51.460Z,18.59
2023-04-19T19:33:18.488Z,18.54
2023-04-19T19:35:45.752Z,18.50
2023-04-19T19:38:12.314Z,18.45
2023-04-19T19:41:04.163Z,18.37
2023-04-19T19:43:25.649Z,18.32
2023-04-19T19:45:52.319Z,18.26
2023-04-19T19:48:18.835Z,18.21
2023-04-19T19:51:17.396Z,18.13
2023-04-19T19:53:32.566Z,18.07
2023-04-19T19:55:59.863Z,18.02
2023-04-19T20:01:03.309Z,17.91
2023-04-19T20:03:37.813Z,17.91
2023-04-19T20:08:40.132Z,17.80
2023-04-19T20:11:09.539Z,17.78
2023-04-19T20:13:36.645Z,17.74
2023-04-19T20:16:03.447Z,17.67
2023-04-19T20:18:30.273Z,17.67
2023-04-19T20:20:57.941Z,17.64
2023-04-19T20:23:24.832Z,17.57
2023-04-19T20:25:52.135Z,17.56
2023-04-19T20:28:18.829Z,17.48
2023-04-19T20:30:45.684Z,17.46
2023-04-19T20:33:12.385Z,17.41
2023-04-19T20:35:39.058Z,17.37
2023-04-19T20:38:07.658Z,17.32
2023-04-19T20:40:34.288Z,17.25
2023-04-19T20:43:01.172Z,17.23
2023-04-19T20:45:27.850Z,17.20
2023-04-19T20:47:55.712Z,17.15
2023-04-19T20:50:23.019Z,17.08
2023-04-19T20:52:49.635Z,17.05
2023-04-19T20:55:16.555Z,17.01
2023-04-19T20:57:43.223Z,16.98
2023-04-19T21:00:10.500Z,16.91
2023-04-19T21:02:37.203Z,16.92
2023-04-19T21:05:04.054Z,16.88
2023-04-19T21:07:30.787Z,16.81
2023-04-19T21:09:57.320Z,16.70
2023-04-19T21:12:24.276Z,16.67
2023-04-19T21:14:52.412Z,16.60
2023-04-19T21:17:19.155Z,16.57
2023-04-19T21:19:45.727Z,16.57
2023-04-19T21:22:12.270Z,16.54
2023-04-19T21:24:38.810Z,16.49
2023-04-19T21:27:05.649Z,16.39
2023-04-19T21:29:32.784Z,16.39
2023-04-19T21:31:59.469Z,16.39
2023-04-19T21:34:26.942Z,16.39
2023-04-19T21:36:53.472Z,16.33
2023-04-19T21:39:20.033Z,16.31
2023-04-19T21:41:46.709Z,16.33
2023-04-19T21:44:13.245Z,16.29
2023-04-19T21:46:41.391Z,16.25
2023-04-19T21:49:08.173Z,16.17
2023-04-19T21:51:34.709Z,16.16
2023-04-19T21:54:01.376Z,16.08
2023-04-19T21:56:28.194Z,16.11
2023-04-19T21:58:54.756Z,16.07
2023-04-19T22:01:21.449Z,16.05
2023-04-19T22:03:49.010Z,16.01
2023-04-19T22:06:17.099Z,15.98
2023-04-19T22:08:44.048Z,15.99
2023-04-19T22:11:12.007Z,15.89
2023-04-19T22:13:38.728Z,15.84
2023-04-19T22:16:05.967Z,15.88
2023-04-19T22:18:34.638Z,15.82
2023-04-19T22:21:01.438Z,15.81
2023-04-19T22:23:28.458Z,15.85
2023-04-19T22:25:55.060Z,15.84
2023-04-19T22:28:21.622Z,15.78
2023-04-19T22:30:48.205Z,15.74
2023-04-19T22:33:14.731Z,15.70
2023-04-19T22:35:41.271Z,15.68
2023-04-19T22:38:08.187Z,15.67
2023-04-19T22:40:34.780Z,15.65
2023-04-19T22:43:01.339Z,15.55
2023-04-19T22:45:27.916Z,15.59
2023-04-19T22:47:54.568Z,15.50
2023-04-19T22:50:23.669Z,15.51
2023-04-19T22:52:50.835Z,15.48
2023-04-19T22:55:17.493Z,15.38
2023-04-19T22:57:44.008Z,15.34
2023-04-19T23:00:11.137Z,15.28
2023-04-19T23:02:38.653Z,15.28
2023-04-19T23:05:06.326Z,15.29
2023-04-19T23:07:33.273Z,15.30
2023-04-19T23:10:00.096Z,15.31
2023-04-19T23:12:26.838Z,15.27
2023-04-19T23:14:54.197Z,15.26
2023-04-19T23:17:21.154Z,15.17
2023-04-19T23:19:47.853Z,15.13
2023-04-19T23:22:14.435Z,15.10
2023-04-19T23:24:40.980Z,15.06
2023-04-19T23:27:07.628Z,14.98
2023-04-19T23:29:34.219Z,14.93
2023-04-19T23:32:02.190Z,14.90
2023-04-19T23:34:28.810Z,14.85
2023-04-19T23:36:56.791Z,14.90
2023-04-19T23:39:23.373Z,14.86
2023-04-19T23:41:49.918Z,14.79
2023-04-19T23:44:16.480Z,14.73
2023-04-19T23:46:43.079Z,14.70
2023-04-19T23:49:09.693Z,14.67
2023-04-19T23:51:36.462Z,14.72
2023-04-19T23:54:03.361Z,14.68
2023-04-19T23:56:29.999Z,14.68
2023-04-19T23:58:57.471Z,14.72
